sensor_id;sensor_type;location;lat;lon;timestamp;pressure;altitude;pressure_sealevel;temperature;humidity
22662;BME280;11497;52.222;21.246;2022-12-07T00:01:39;99689.19;;;2.40;96.96
22662;BME280;11497;52.222;21.246;2022-12-07T00:04:12;99683.13;;;2.44;96.95
22662;BME280;11497;52.222;21.246;2022-12-07T00:06:42;99681.53;;;2.30;97.02
22662;BME280;11497;52.222;21.246;2022-12-07T00:09:13;99685.81;;;2.33;97.34
22662;BME280;11497;52.222;21.246;2022-12-07T00:11:42;99678.09;;;2.31;97.67
22662;BME280;11497;52.222;21.246;2022-12-07T00:14:14;99674.59;;;2.36;97.98
22662;BME280;11497;52.222;21.246;2022-12-07T00:16:43;99670.28;;;2.38;97.52
22662;BME280;11497;52.222;21.246;2022-12-07T00:19:13;99666.75;;;2.45;97.56
22662;BME280;11497;52.222;21.246;2022-12-07T00:21:41;99666.88;;;2.34;97.19
22662;BME280;11497;52.222;21.246;2022-12-07T00:24:10;99662.59;;;2.31;96.97
22662;BME280;11497;52.222;21.246;2022-12-07T00:26:41;99665.22;;;2.28;97.07
22662;BME280;11497;52.222;21.246;2022-12-07T00:29:18;99662.72;;;2.19;97.48
22662;BME280;11497;52.222;21.246;2022-12-07T00:31:47;99666.13;;;2.21;97.85
22662;BME280;11497;52.222;21.246;2022-12-07T00:34:18;99664.38;;;2.25;97.76
22662;BME280;11497;52.222;21.246;2022-12-07T00:36:46;99667.00;;;2.20;97.89
22662;BME280;11497;52.222;21.246;2022-12-07T00:39:15;99673.00;;;2.22;97.51
22662;BME280;11497;52.222;21.246;2022-12-07T00:41:42;99671.34;;;2.18;98.16
22662;BME280;11497;52.222;21.246;2022-12-07T00:44:10;99669.47;;;2.32;97.79
22662;BME280;11497;52.222;21.246;2022-12-07T00:46:38;99664.25;;;2.36;97.65
22662;BME280;11497;52.222;21.246;2022-12-07T00:49:07;99661.88;;;2.19;98.08
22662;BME280;11497;52.222;21.246;2022-12-07T00:51:34;99660.09;;;2.24;98.14
22662;BME280;11497;52.222;21.246;2022-12-07T00:54:03;99662.44;;;2.45;98.11
22662;BME280;11497;52.222;21.246;2022-12-07T00:56:30;99663.81;;;2.72;97.88
22662;BME280;11497;52.222;21.246;2022-12-07T00:59:03;99660.50;;;2.61;96.99
22662;BME280;11497;52.222;21.246;2022-12-07T01:01:34;99669.34;;;2.43;96.68
22662;BME280;11497;52.222;21.246;2022-12-07T01:04:02;99660.88;;;2.30;96.79
22662;BME280;11497;52.222;21.246;2022-12-07T01:06:31;99672.72;;;2.50;96.97
22662;BME280;11497;52.222;21.246;2022-12-07T01:08:59;99665.72;;;2.58;96.44
22662;BME280;11497;52.222;21.246;2022-12-07T01:11:29;99664.31;;;2.32;96.43
22662;BME280;11497;52.222;21.246;2022-12-07T01:13:59;99663.50;;;2.27;96.96
22662;BME280;11497;52.222;21.246;2022-12-07T01:16:29;99654.94;;;2.24;97.42
22662;BME280;11497;52.222;21.246;2022-12-07T01:18:59;99661.75;;;2.29;98.33
22662;BME280;11497;52.222;21.246;2022-12-07T01:21:29;99656.44;;;2.42;98.10
22662;BME280;11497;52.222;21.246;2022-12-07T01:24:00;99655.66;;;2.37;98.00
22662;BME280;11497;52.222;21.246;2022-12-07T01:26:28;99653.09;;;2.33;97.99
22662;BME280;11497;52.222;21.246;2022-12-07T01:28:56;99647.81;;;2.44;98.51
22662;BME280;11497;52.222;21.246;2022-12-07T01:31:27;99649.59;;;2.39;98.47
22662;BME280;11497;52.222;21.246;2022-12-07T01:33:57;99648.69;;;2.42;98.68
22662;BME280;11497;52.222;21.246;2022-12-07T01:38:59;99646.97;;;2.44;98.58
22662;BME280;11497;52.222;21.246;2022-12-07T01:41:30;99646.13;;;2.42;98.85
22662;BME280;11497;52.222;21.246;2022-12-07T01:44:21;99652.00;;;2.53;99.11
22662;BME280;11497;52.222;21.246;2022-12-07T01:46:55;99645.13;;;2.52;98.50
22662;BME280;11497;52.222;21.246;2022-12-07T01:52:03;99638.25;;;2.51;99.27
22662;BME280;11497;52.222;21.246;2022-12-07T01:54:33;99639.91;;;2.56;99.29
22662;BME280;11497;52.222;21.246;2022-12-07T01:57:03;99643.31;;;2.60;99.63
22662;BME280;11497;52.222;21.246;2022-12-07T01:59:32;99632.06;;;2.62;99.34
22662;BME280;11497;52.222;21.246;2022-12-07T02:02:03;99634.47;;;2.75;98.67
22662;BME280;11497;52.222;21.246;2022-12-07T02:04:33;99619.13;;;2.64;98.75
22662;BME280;11497;52.222;21.246;2022-12-07T02:07:01;99626.88;;;2.64;98.96
22662;BME280;11497;52.222;21.246;2022-12-07T02:09:31;99620.84;;;2.65;99.08
22662;BME280;11497;52.222;21.246;2022-12-07T02:11:58;99624.25;;;2.67;99.19
22662;BME280;11497;52.222;21.246;2022-12-07T02:14:26;99612.22;;;2.66;99.55
22662;BME280;11497;52.222;21.246;2022-12-07T02:17:14;99621.59;;;2.73;99.38
22662;BME280;11497;52.222;21.246;2022-12-07T02:20:13;99618.28;;;2.63;99.35
22662;BME280;11497;52.222;21.246;2022-12-07T02:23:03;99616.31;;;2.81;99.57
22662;BME280;11497;52.222;21.246;2022-12-07T02:25:54;99617.91;;;2.89;99.65
22662;BME280;11497;52.222;21.246;2022-12-07T02:28:54;99615.38;;;2.86;99.58
22662;BME280;11497;52.222;21.246;2022-12-07T02:31:31;99615.41;;;2.83;99.61
22662;BME280;11497;52.222;21.246;2022-12-07T02:34:09;99611.88;;;2.90;99.82
22662;BME280;11497;52.222;21.246;2022-12-07T02:36:52;99609.16;;;2.99;99.33
22662;BME280;11497;52.222;21.246;2022-12-07T02:39:41;99606.63;;;2.96;98.95
22662;BME280;11497;52.222;21.246;2022-12-07T02:42:15;99609.16;;;2.99;99.55
22662;BME280;11497;52.222;21.246;2022-12-07T02:44:47;99612.59;;;3.00;99.45
22662;BME280;11497;52.222;21.246;2022-12-07T02:47:17;99606.53;;;3.03;98.83
22662;BME280;11497;52.222;21.246;2022-12-07T02:49:47;99599.56;;;3.05;99.10
22662;BME280;11497;52.222;21.246;2022-12-07T02:52:16;99603.13;;;3.00;99.35
22662;BME280;11497;52.222;21.246;2022-12-07T02:54:44;99604.91;;;2.95;98.97
22662;BME280;11497;52.222;21.246;2022-12-07T02:57:50;99597.72;;;3.13;99.40
22662;BME280;11497;52.222;21.246;2022-12-07T03:00:22;99589.06;;;3.17;99.32
22662;BME280;11497;52.222;21.246;2022-12-07T03:03:04;99595.94;;;3.18;98.71
22662;BME280;11497;52.222;21.246;2022-12-07T03:05:54;99590.84;;;3.12;98.58
22662;BME280;11497;52.222;21.246;2022-12-07T03:08:38;99588.13;;;3.21;98.97
22662;BME280;11497;52.222;21.246;2022-12-07T03:11:29;99590.84;;;3.12;98.60
22662;BME280;11497;52.222;21.246;2022-12-07T03:14:13;99587.25;;;3.22;98.83
22662;BME280;11497;52.222;21.246;2022-12-07T03:17:15;99594.22;;;3.17;98.77
22662;BME280;11497;52.222;21.246;2022-12-07T03:19:42;99585.56;;;3.19;98.82
22662;BME280;11497;52.222;21.246;2022-12-07T03:22:12;99578.84;;;3.08;99.23
22662;BME280;11497;52.222;21.246;2022-12-07T03:27:15;99589.94;;;3.16;98.84
22662;BME280;11497;52.222;21.246;2022-12-07T03:29:56;99583.94;;;3.14;99.01
22662;BME280;11497;52.222;21.246;2022-12-07T03:35:31;99584.75;;;3.16;98.96
22662;BME280;11497;52.222;21.246;2022-12-07T03:43:28;99583.94;;;3.14;98.38
22662;BME280;11497;52.222;21.246;2022-12-07T03:51:24;99575.34;;;3.12;98.60
22662;BME280;11497;52.222;21.246;2022-12-07T03:54:10;99572.03;;;3.04;98.56
22662;BME280;11497;52.222;21.246;2022-12-07T03:56:41;99576.28;;;3.06;98.98
22662;BME280;11497;52.222;21.246;2022-12-07T03:59:12;99574.38;;;3.17;99.20
22662;BME280;11497;52.222;21.246;2022-12-07T04:01:44;99571.94;;;3.10;98.55
22662;BME280;11497;52.222;21.246;2022-12-07T04:04:18;99562.66;;;2.98;99.00
22662;BME280;11497;52.222;21.246;2022-12-07T04:06:46;99568.63;;;3.02;98.83
22662;BME280;11497;52.222;21.246;2022-12-07T04:09:14;99572.94;;;3.01;99.21
22662;BME280;11497;52.222;21.246;2022-12-07T04:11:42;99564.31;;;3.02;99.18
22662;BME280;11497;52.222;21.246;2022-12-07T04:14:10;99564.38;;;2.97;98.95
22662;BME280;11497;52.222;21.246;2022-12-07T04:16:52;99574.00;;;2.88;98.83
22662;BME280;11497;52.222;21.246;2022-12-07T04:19:22;99568.72;;;2.95;99.04
22662;BME280;11497;52.222;21.246;2022-12-07T04:21:50;99565.41;;;2.87;98.77
22662;BME280;11497;52.222;21.246;2022-12-07T04:24:18;99574.00;;;2.89;99.05
22662;BME280;11497;52.222;21.246;2022-12-07T04:26:47;99562.72;;;2.93;99.19
22662;BME280;11497;52.222;21.246;2022-12-07T04:29:16;99566.13;;;2.97;98.63
22662;BME280;11497;52.222;21.246;2022-12-07T04:31:45;99560.25;;;2.86;98.36
22662;BME280;11497;52.222;21.246;2022-12-07T04:34:13;99558.38;;;2.95;98.32
22662;BME280;11497;52.222;21.246;2022-12-07T04:36:41;99557.69;;;2.84;98.46
22662;BME280;11497;52.222;21.246;2022-12-07T04:39:25;99557.84;;;2.75;98.61
22662;BME280;11497;52.222;21.246;2022-12-07T04:41:53;99562.94;;;2.80;98.53
22662;BME280;11497;52.222;21.246;2022-12-07T04:44:21;99558.66;;;2.77;98.25
22662;BME280;11497;52.222;21.246;2022-12-07T04:46:50;99560.47;;;2.72;97.97
22662;BME280;11497;52.222;21.246;2022-12-07T04:49:19;99560.38;;;2.78;98.18
22662;BME280;11497;52.222;21.246;2022-12-07T04:51:47;99558.69;;;2.76;97.57
22662;BME280;11497;52.222;21.246;2022-12-07T04:54:15;99553.72;;;2.62;97.91
22662;BME280;11497;52.222;21.246;2022-12-07T04:56:44;99557.16;;;2.61;98.00
22662;BME280;11497;52.222;21.246;2022-12-07T04:59:13;99559.00;;;2.54;98.56
22662;BME280;11497;52.222;21.246;2022-12-07T05:01:41;99553.03;;;2.51;98.41
22662;BME280;11497;52.222;21.246;2022-12-07T05:04:09;99548.63;;;2.59;98.46
22662;BME280;11497;52.222;21.246;2022-12-07T05:06:37;99548.63;;;2.59;97.93
22662;BME280;11497;52.222;21.246;2022-12-07T05:09:05;99548.63;;;2.59;98.22
22662;BME280;11497;52.222;21.246;2022-12-07T05:11:33;99543.56;;;2.50;98.22
22662;BME280;11497;52.222;21.246;2022-12-07T05:14:16;99542.50;;;2.63;98.47
22662;BME280;11497;52.222;21.246;2022-12-07T05:16:47;99536.72;;;2.49;98.09
22662;BME280;11497;52.222;21.246;2022-12-07T05:19:16;99550.38;;;2.57;97.96
22662;BME280;11497;52.222;21.246;2022-12-07T05:21:44;99540.03;;;2.57;98.50
22662;BME280;11497;52.222;21.246;2022-12-07T05:24:14;99547.78;;;2.57;98.33
22662;BME280;11497;52.222;21.246;2022-12-07T05:26:42;99541.88;;;2.49;98.27
22662;BME280;11497;52.222;21.246;2022-12-07T05:29:13;99546.72;;;2.68;97.96
22662;BME280;11497;52.222;21.246;2022-12-07T05:31:42;99546.91;;;2.58;97.92
22662;BME280;11497;52.222;21.246;2022-12-07T05:34:10;99545.16;;;2.60;98.00
22662;BME280;11497;52.222;21.246;2022-12-07T05:36:38;99544.31;;;2.58;98.11
22662;BME280;11497;52.222;21.246;2022-12-07T05:39:06;99537.56;;;2.49;97.98
22662;BME280;11497;52.222;21.246;2022-12-07T05:41:34;99536.63;;;2.55;97.48
22662;BME280;11497;52.222;21.246;2022-12-07T05:44:21;99538.38;;;2.53;97.57
22662;BME280;11497;52.222;21.246;2022-12-07T05:46:49;99543.56;;;2.50;97.50
22662;BME280;11497;52.222;21.246;2022-12-07T05:49:16;99544.66;;;2.33;97.25
22662;BME280;11497;52.222;21.246;2022-12-07T05:51:44;99549.84;;;2.30;97.90
22662;BME280;11497;52.222;21.246;2022-12-07T05:54:12;99543.88;;;2.28;97.99
22662;BME280;11497;52.222;21.246;2022-12-07T05:56:40;99545.53;;;2.32;97.84
22662;BME280;11497;52.222;21.246;2022-12-07T05:59:08;99548.81;;;2.44;97.79
22662;BME280;11497;52.222;21.246;2022-12-07T06:02:04;99548.09;;;2.32;97.30
22662;BME280;11497;52.222;21.246;2022-12-07T06:04:35;99544.59;;;2.38;97.40
22662;BME280;11497;52.222;21.246;2022-12-07T06:07:03;99549.06;;;2.25;97.04
22662;BME280;11497;52.222;21.246;2022-12-07T06:09:31;99543.88;;;2.28;97.59
22662;BME280;11497;52.222;21.246;2022-12-07T06:12:00;99543.09;;;2.20;97.42
22662;BME280;11497;52.222;21.246;2022-12-07T06:14:46;99540.44;;;2.26;97.96
22662;BME280;11497;52.222;21.246;2022-12-07T06:17:15;99535.44;;;2.16;97.57
22662;BME280;11497;52.222;21.246;2022-12-07T06:19:42;99550.94;;;2.14;97.73
22662;BME280;11497;52.222;21.246;2022-12-07T06:22:11;99552.66;;;2.15;97.70
22662;BME280;11497;52.222;21.246;2022-12-07T06:24:39;99547.53;;;2.12;97.86
22662;BME280;11497;52.222;21.246;2022-12-07T06:27:09;99538.97;;;2.10;97.81
22662;BME280;11497;52.222;21.246;2022-12-07T06:29:37;99538.91;;;2.13;97.61
22662;BME280;11497;52.222;21.246;2022-12-07T06:32:05;99542.41;;;2.09;97.97
22662;BME280;11497;52.222;21.246;2022-12-07T06:34:32;99551.88;;;2.09;97.87
22662;BME280;11497;52.222;21.246;2022-12-07T06:37:00;99544.13;;;2.09;97.32
22662;BME280;11497;52.222;21.246;2022-12-07T06:39:29;99537.31;;;2.03;97.34
22662;BME280;11497;52.222;21.246;2022-12-07T06:41:57;99540.81;;;1.99;97.46
22662;BME280;11497;52.222;21.246;2022-12-07T06:44:25;99548.53;;;2.00;97.46
22662;BME280;11497;52.222;21.246;2022-12-07T06:46:53;99539.09;;;1.99;97.60
22662;BME280;11497;52.222;21.246;2022-12-07T06:49:41;99542.47;;;2.03;98.14
22662;BME280;11497;52.222;21.246;2022-12-07T06:52:09;99543.41;;;1.97;97.91
22662;BME280;11497;52.222;21.246;2022-12-07T06:54:37;99545.81;;;2.11;97.26
22662;BME280;11497;52.222;21.246;2022-12-07T06:57:04;99539.03;;;2.04;97.22
22662;BME280;11497;52.222;21.246;2022-12-07T06:59:32;99535.53;;;2.08;97.47
22662;BME280;11497;52.222;21.246;2022-12-07T07:02:00;99541.66;;;2.01;97.61
22662;BME280;11497;52.222;21.246;2022-12-07T07:04:28;99534.78;;;2.00;97.49
22662;BME280;11497;52.222;21.246;2022-12-07T07:06:56;99532.13;;;2.06;97.56
22662;BME280;11497;52.222;21.246;2022-12-07T07:09:26;99528.47;;;2.21;97.55
22662;BME280;11497;52.222;21.246;2022-12-07T07:11:54;99542.38;;;2.12;96.78
22662;BME280;11497;52.222;21.246;2022-12-07T07:14:22;99543.09;;;2.20;96.80
22662;BME280;11497;52.222;21.246;2022-12-07T07:16:50;99541.41;;;2.18;96.70
22662;BME280;11497;52.222;21.246;2022-12-07T07:19:17;99533.78;;;2.12;96.48
22662;BME280;11497;52.222;21.246;2022-12-07T07:21:45;99530.41;;;2.05;96.93
22662;BME280;11497;52.222;21.246;2022-12-07T07:24:13;99535.47;;;2.13;96.71
22662;BME280;11497;52.222;21.246;2022-12-07T07:26:40;99542.41;;;2.09;97.12
22662;BME280;11497;52.222;21.246;2022-12-07T07:29:08;99537.34;;;2.00;97.16
22662;BME280;11497;52.222;21.246;2022-12-07T07:31:36;99537.31;;;2.03;97.37
22662;BME280;11497;52.222;21.246;2022-12-07T07:34:04;99537.34;;;2.00;97.35
22662;BME280;11497;52.222;21.246;2022-12-07T07:36:33;99533.91;;;2.01;97.29
22662;BME280;11497;52.222;21.246;2022-12-07T07:39:00;99539.97;;;1.98;97.21
22662;BME280;11497;52.222;21.246;2022-12-07T07:41:28;99542.59;;;1.94;97.38
22662;BME280;11497;52.222;21.246;2022-12-07T07:43:56;99533.97;;;1.96;97.38
22662;BME280;11497;52.222;21.246;2022-12-07T07:46:24;99544.25;;;1.99;97.61
22662;BME280;11497;52.222;21.246;2022-12-07T07:48:52;99539.00;;;2.07;98.02
22662;BME280;11497;52.222;21.246;2022-12-07T07:51:20;99533.75;;;2.15;97.86
22662;BME280;11497;52.222;21.246;2022-12-07T07:53:47;99539.00;;;2.07;97.52
22662;BME280;11497;52.222;21.246;2022-12-07T07:56:15;99525.22;;;2.08;97.47
22662;BME280;11497;52.222;21.246;2022-12-07T07:58:43;99538.19;;;2.02;97.37
22662;BME280;11497;52.222;21.246;2022-12-07T08:01:11;99538.13;;;2.08;97.72
22662;BME280;11497;52.222;21.246;2022-12-07T08:03:40;99539.88;;;2.05;97.77
22662;BME280;11497;52.222;21.246;2022-12-07T08:06:08;99540.78;;;2.02;97.62
22662;BME280;11497;52.222;21.246;2022-12-07T08:08:36;99544.09;;;2.13;97.73
22662;BME280;11497;52.222;21.246;2022-12-07T08:11:08;99539.78;;;2.12;97.75
22662;BME280;11497;52.222;21.246;2022-12-07T08:13:36;99534.66;;;2.11;97.60
22662;BME280;11497;52.222;21.246;2022-12-07T08:16:09;99543.94;;;2.21;97.95
22662;BME280;11497;52.222;21.246;2022-12-07T08:18:38;99540.53;;;2.19;97.81
22662;BME280;11497;52.222;21.246;2022-12-07T08:21:08;99546.56;;;2.19;97.64
22662;BME280;11497;52.222;21.246;2022-12-07T08:23:36;99540.38;;;2.32;97.71
22662;BME280;11497;52.222;21.246;2022-12-07T08:26:12;99548.16;;;2.28;98.03
22662;BME280;11497;52.222;21.246;2022-12-07T08:28:41;99548.97;;;2.31;97.66
22662;BME280;11497;52.222;21.246;2022-12-07T08:31:14;99549.03;;;2.28;98.03
22662;BME280;11497;52.222;21.246;2022-12-07T08:33:44;99545.53;;;2.32;98.13
22662;BME280;11497;52.222;21.246;2022-12-07T08:36:12;99547.94;;;2.45;97.96
22662;BME280;11497;52.222;21.246;2022-12-07T08:38:41;99555.69;;;2.45;97.88
22662;BME280;11497;52.222;21.246;2022-12-07T08:41:29;99546.97;;;2.53;97.74
22662;BME280;11497;52.222;21.246;2022-12-07T08:43:57;99553.78;;;2.59;97.68
22662;BME280;11497;52.222;21.246;2022-12-07T08:46:38;99548.53;;;2.62;97.66
22662;BME280;11497;52.222;21.246;2022-12-07T08:49:17;99551.91;;;2.68;97.93
22662;BME280;11497;52.222;21.246;2022-12-07T08:51:45;99551.97;;;2.64;97.91
22662;BME280;11497;52.222;21.246;2022-12-07T08:54:16;99543.25;;;2.71;97.53
22662;BME280;11497;52.222;21.246;2022-12-07T08:56:45;99548.41;;;2.71;97.68
22662;BME280;11497;52.222;21.246;2022-12-07T08:59:15;99547.81;;;2.55;97.96
22662;BME280;11497;52.222;21.246;2022-12-07T09:01:45;99546.78;;;2.64;98.49
22662;BME280;11497;52.222;21.246;2022-12-07T09:04:13;99538.03;;;2.74;98.70
22662;BME280;11497;52.222;21.246;2022-12-07T09:06:42;99550.13;;;2.72;98.88
22662;BME280;11497;52.222;21.246;2022-12-07T09:09:11;99538.84;;;2.78;98.97
22662;BME280;11497;52.222;21.246;2022-12-07T09:11:39;99541.22;;;2.91;99.31
22662;BME280;11497;52.222;21.246;2022-12-07T09:14:06;99538.59;;;2.94;98.90
22662;BME280;11497;52.222;21.246;2022-12-07T09:16:34;99544.63;;;2.93;99.29
22662;BME280;11497;52.222;21.246;2022-12-07T09:19:03;99536.47;;;3.18;98.56
22662;BME280;11497;52.222;21.246;2022-12-07T09:21:31;99535.31;;;3.34;98.76
22662;BME280;11497;52.222;21.246;2022-12-07T09:23:59;99528.50;;;3.30;98.36
22662;BME280;11497;52.222;21.246;2022-12-07T09:26:26;99530.22;;;3.31;98.33
22662;BME280;11497;52.222;21.246;2022-12-07T09:28:54;99519.78;;;3.36;97.65
22662;BME280;11497;52.222;21.246;2022-12-07T09:31:22;99523.97;;;3.43;97.87
22662;BME280;11497;52.222;21.246;2022-12-07T09:33:59;99519.44;;;3.54;97.20
22662;BME280;11497;52.222;21.246;2022-12-07T09:36:28;99513.94;;;3.71;96.18
22662;BME280;11497;52.222;21.246;2022-12-07T09:38:56;99524.19;;;3.77;95.94
22662;BME280;11497;52.222;21.246;2022-12-07T09:41:26;99523.66;;;4.01;95.60
22662;BME280;11497;52.222;21.246;2022-12-07T09:44:23;99529.81;;;3.95;94.92
22662;BME280;11497;52.222;21.246;2022-12-07T09:46:47;99525.56;;;3.93;94.47
22662;BME280;11497;52.222;21.246;2022-12-07T09:49:18;99519.31;;;4.03;93.93
22662;BME280;11497;52.222;21.246;2022-12-07T09:51:47;99513.25;;;4.04;93.17
22662;BME280;11497;52.222;21.246;2022-12-07T09:54:16;99514.84;;;4.11;92.83
22662;BME280;11497;52.222;21.246;2022-12-07T09:56:44;99507.19;;;4.05;92.91
22662;BME280;11497;52.222;21.246;2022-12-07T09:59:16;99518.25;;;4.13;92.17
22662;BME280;11497;52.222;21.246;2022-12-07T10:01:47;99520.00;;;4.11;92.33
22662;BME280;11497;52.222;21.246;2022-12-07T10:04:25;99509.56;;;4.16;92.01
22662;BME280;11497;52.222;21.246;2022-12-07T10:06:53;99516.59;;;4.09;91.87
22662;BME280;11497;52.222;21.246;2022-12-07T10:09:22;99510.16;;;4.28;92.27
22662;BME280;11497;52.222;21.246;2022-12-07T10:12:06;99518.06;;;4.22;91.63
22662;BME280;11497;52.222;21.246;2022-12-07T10:14:37;99519.94;;;4.14;91.68
22662;BME280;11497;52.222;21.246;2022-12-07T10:17:37;99516.88;;;4.35;91.71
22662;BME280;11497;52.222;21.246;2022-12-07T10:20:23;99511.69;;;4.35;91.11
22662;BME280;11497;52.222;21.246;2022-12-07T10:23:04;99505.38;;;4.49;90.43
22662;BME280;11497;52.222;21.246;2022-12-07T10:25:35;99499.56;;;4.38;89.94
22662;BME280;11497;52.222;21.246;2022-12-07T10:28:15;99507.63;;;4.25;90.06
22662;BME280;11497;52.222;21.246;2022-12-07T10:31:01;99507.41;;;4.34;89.61
22662;BME280;11497;52.222;21.246;2022-12-07T10:33:38;99506.38;;;4.42;88.72
22662;BME280;11497;52.222;21.246;2022-12-07T10:36:27;99508.25;;;4.35;89.35
22662;BME280;11497;52.222;21.246;2022-12-07T10:39:16;99501.13;;;4.45;89.08
22662;BME280;11497;52.222;21.246;2022-12-07T10:42:00;99499.06;;;4.60;88.94
22662;BME280;11497;52.222;21.246;2022-12-07T10:44:30;99505.28;;;4.52;88.47
22662;BME280;11497;52.222;21.246;2022-12-07T10:49:48;99505.56;;;4.40;87.87
22662;BME280;11497;52.222;21.246;2022-12-07T11:15:28;99505.63;;;4.37;86.53
22662;BME280;11497;52.222;21.246;2022-12-07T11:18:11;99508.59;;;4.20;86.68
22662;BME280;11497;52.222;21.246;2022-12-07T11:24:10;99505.88;;;4.27;85.98
22662;BME280;11497;52.222;21.246;2022-12-07T11:30:19;99494.97;;;4.12;86.41
22662;BME280;11497;52.222;21.246;2022-12-07T11:36:02;99498.97;;;4.26;86.08
22662;BME280;11497;52.222;21.246;2022-12-07T11:39:00;99495.50;;;4.27;85.99
22662;BME280;11497;52.222;21.246;2022-12-07T11:41:36;99497.66;;;4.07;86.32
22662;BME280;11497;52.222;21.246;2022-12-07T11:44:27;99496.78;;;4.08;86.92
22662;BME280;11497;52.222;21.246;2022-12-07T11:47:13;99486.59;;;3.99;87.59
22662;BME280;11497;52.222;21.246;2022-12-07T11:52:45;99489.06;;;4.05;88.06
22662;BME280;11497;52.222;21.246;2022-12-07T11:58:04;99488.63;;;4.26;87.79
22662;BME280;11497;52.222;21.246;2022-12-07T12:00:33;99488.69;;;4.23;87.37
22662;BME280;11497;52.222;21.246;2022-12-07T12:03:14;99484.19;;;4.31;86.80
22662;BME280;11497;52.222;21.246;2022-12-07T12:05:42;99486.09;;;4.23;87.27
22662;BME280;11497;52.222;21.246;2022-12-07T12:08:17;99478.97;;;4.33;87.36
22662;BME280;11497;52.222;21.246;2022-12-07T12:20:32;99476.66;;;4.21;87.26
22662;BME280;11497;52.222;21.246;2022-12-07T12:25:46;99464.59;;;4.57;86.93
22662;BME280;11497;52.222;21.246;2022-12-07T12:33:49;99456.41;;;4.37;86.39
22662;BME280;11497;52.222;21.246;2022-12-07T12:39:16;99459.03;;;3.96;87.37
22662;BME280;11497;52.222;21.246;2022-12-07T12:51:56;99474.25;;;3.72;89.65
22662;BME280;11497;52.222;21.246;2022-12-07T12:54:33;99469.97;;;3.69;90.29
22662;BME280;11497;52.222;21.246;2022-12-07T13:29:17;99454.38;;;3.29;92.99
22662;BME280;11497;52.222;21.246;2022-12-07T13:31:52;99456.28;;;3.19;92.93
22662;BME280;11497;52.222;21.246;2022-12-07T13:34:40;99452.75;;;3.23;93.32
22662;BME280;11497;52.222;21.246;2022-12-07T13:37:24;99455.34;;;3.23;93.04
22662;BME280;11497;52.222;21.246;2022-12-07T13:40:01;99457.97;;;3.22;93.16
22662;BME280;11497;52.222;21.246;2022-12-07T13:42:39;99463.03;;;3.28;93.64
22662;BME280;11497;52.222;21.246;2022-12-07T13:45:29;99464.88;;;3.21;93.31
22662;BME280;11497;52.222;21.246;2022-12-07T13:48:31;99464.94;;;3.17;93.71
22662;BME280;11497;52.222;21.246;2022-12-07T13:51:00;99457.81;;;3.31;93.49
22662;BME280;11497;52.222;21.246;2022-12-07T13:53:29;99464.91;;;3.20;93.56
22662;BME280;11497;52.222;21.246;2022-12-07T13:56:01;99460.56;;;3.22;93.69
22662;BME280;11497;52.222;21.246;2022-12-07T13:58:31;99462.19;;;3.27;93.51
22662;BME280;11497;52.222;21.246;2022-12-07T14:01:00;99449.16;;;3.32;93.27
22662;BME280;11497;52.222;21.246;2022-12-07T14:03:34;99459.72;;;3.20;93.61
22662;BME280;11497;52.222;21.246;2022-12-07T14:06:14;99463.19;;;3.19;93.80
22662;BME280;11497;52.222;21.246;2022-12-07T14:08:43;99452.28;;;3.03;93.90
22662;BME280;11497;52.222;21.246;2022-12-07T14:11:17;99455.50;;;3.14;93.91
22662;BME280;11497;52.222;21.246;2022-12-07T14:14:14;99459.81;;;3.15;93.97
22662;BME280;11497;52.222;21.246;2022-12-07T14:16:43;99454.91;;;3.02;94.51
22662;BME280;11497;52.222;21.246;2022-12-07T14:27:33;99452.97;;;3.13;94.29
22662;BME280;11497;52.222;21.246;2022-12-07T14:30:03;99460.06;;;3.02;94.50
22662;BME280;11497;52.222;21.246;2022-12-07T14:32:34;99465.41;;;2.92;94.67
22662;BME280;11497;52.222;21.246;2022-12-07T14:35:13;99465.34;;;2.95;95.07
22662;BME280;11497;52.222;21.246;2022-12-07T14:37:42;99462.03;;;2.87;94.92
22662;BME280;11497;52.222;21.246;2022-12-07T14:40:14;99460.41;;;2.82;95.43
22662;BME280;11497;52.222;21.246;2022-12-07T14:42:43;99477.63;;;2.81;95.32
22662;BME280;11497;52.222;21.246;2022-12-07T14:45:16;99466.53;;;2.75;95.44
22662;BME280;11497;52.222;21.246;2022-12-07T14:47:45;99463.00;;;2.82;95.34
22662;BME280;11497;52.222;21.246;2022-12-07T14:50:37;99458.03;;;2.68;94.98
22662;BME280;11497;52.222;21.246;2022-12-07T14:53:35;99463.97;;;2.75;95.04
22662;BME280;11497;52.222;21.246;2022-12-07T14:56:04;99466.69;;;2.65;95.63
22662;BME280;11497;52.222;21.246;2022-12-07T14:58:36;99458.72;;;2.79;95.06
22662;BME280;11497;52.222;21.246;2022-12-07T15:01:04;99471.81;;;2.68;94.87
22662;BME280;11497;52.222;21.246;2022-12-07T15:03:32;99469.06;;;2.79;94.66
22662;BME280;11497;52.222;21.246;2022-12-07T15:06:02;99464.94;;;2.67;94.49
22662;BME280;11497;52.222;21.246;2022-12-07T15:08:31;99462.50;;;2.60;95.13
22662;BME280;11497;52.222;21.246;2022-12-07T15:10:58;99465.88;;;2.62;95.52
22662;BME280;11497;52.222;21.246;2022-12-07T15:13:26;99458.09;;;2.65;95.01
22662;BME280;11497;52.222;21.246;2022-12-07T15:16:18;99455.47;;;2.66;95.57
22662;BME280;11497;52.222;21.246;2022-12-07T15:18:46;99460.84;;;2.56;94.76
22662;BME280;11497;52.222;21.246;2022-12-07T15:21:34;99453.13;;;2.54;94.71
22662;BME280;11497;52.222;21.246;2022-12-07T15:24:02;99463.44;;;2.54;95.03
22662;BME280;11497;52.222;21.246;2022-12-07T15:26:30;99460.88;;;2.53;94.81
22662;BME280;11497;52.222;21.246;2022-12-07T15:28:59;99447.38;;;2.36;94.92
22662;BME280;11497;52.222;21.246;2022-12-07T15:31:26;99453.38;;;2.38;94.93
22662;BME280;11497;52.222;21.246;2022-12-07T15:34:14;99450.91;;;2.30;94.61
22662;BME280;11497;52.222;21.246;2022-12-07T15:36:42;99457.94;;;2.19;95.46
22662;BME280;11497;52.222;21.246;2022-12-07T15:39:10;99443.47;;;2.10;95.53
22662;BME280;11497;52.222;21.246;2022-12-07T15:41:41;99449.56;;;2.03;96.14
22662;BME280;11497;52.222;21.246;2022-12-07T15:44:12;99444.47;;;2.00;96.13